createdAt,value
2023-05-17T00:01:47.985Z,13.50
2023-05-17T00:04:14.711Z,15.93
2023-05-17T00:06:41.508Z,12.45
2023-05-17T00:09:10.123Z,13.65
2023-05-17T00:11:36.724Z,14.73
2023-05-17T00:14:03.396Z,13.13
2023-05-17T00:16:29.908Z,13.50
2023-05-17T00:18:56.571Z,13.10
2023-05-17T00:21:23.191Z,13.52
2023-05-17T00:23:49.699Z,12.85
2023-05-17T00:26:16.223Z,12.30
2023-05-17T00:28:42.724Z,19.73
2023-05-17T00:31:09.260Z,16.27
2023-05-17T00:33:35.796Z,14.60
2023-05-17T00:36:02.344Z,12.75
2023-05-17T00:38:32.208Z,14.82
2023-05-17T00:41:02.293Z,16.27
2023-05-17T00:43:28.827Z,15.25
2023-05-17T00:45:58.339Z,13.80
2023-05-17T00:48:26.092Z,13.65
2023-05-17T00:50:53.983Z,16.27
2023-05-17T00:53:20.692Z,15.40
2023-05-17T00:55:47.274Z,12.93
2023-05-17T00:58:15.212Z,16.70
2023-05-17T01:00:46.588Z,12.63
2023-05-17T01:03:13.343Z,15.75
2023-05-17T01:05:40.302Z,17.40
2023-05-17T01:08:06.812Z,15.05
2023-05-17T01:11:01.090Z,17.23
2023-05-17T01:13:43.130Z,17.65
2023-05-17T01:16:18.352Z,13.10
2023-05-17T01:18:52.676Z,12.88
2023-05-17T01:21:55.228Z,18.50
2023-05-17T01:27:13.715Z,15.18
2023-05-17T01:29:48.610Z,17.52
2023-05-17T01:32:16.264Z,14.23
2023-05-17T01:34:43.056Z,12.20
2023-05-17T01:37:09.943Z,18.58
2023-05-17T01:39:36.545Z,16.17
2023-05-17T01:42:13.445Z,19.50
2023-05-17T01:44:55.331Z,19.75
2023-05-17T01:47:30.109Z,18.92
2023-05-17T01:50:00.531Z,19.67
2023-05-17T01:52:37.818Z,20.80
2023-05-17T01:55:19.667Z,19.52
2023-05-17T01:57:52.214Z,15.98
2023-05-17T02:00:19.828Z,15.85
2023-05-17T02:02:46.533Z,27.83
2023-05-17T02:05:13.150Z,20.27
2023-05-17T02:07:39.850Z,22.33
2023-05-17T02:10:08.241Z,19.25
2023-05-17T02:12:34.785Z,20.67
2023-05-17T02:15:01.293Z,24.90
2023-05-17T02:17:28.059Z,20.65
2023-05-17T02:19:54.650Z,21.52
2023-05-17T02:22:21.178Z,21.23
2023-05-17T02:24:48.870Z,17.02
2023-05-17T02:27:15.426Z,26.63
2023-05-17T02:29:42.693Z,15.73
2023-05-17T02:32:09.316Z,19.83
2023-05-17T02:34:36.041Z,23.80
2023-05-17T02:37:02.605Z,28.90
2023-05-17T02:39:29.192Z,21.83
2023-05-17T02:41:55.778Z,18.58
2023-05-17T02:44:22.237Z,24.27
2023-05-17T02:46:48.796Z,21.23
2023-05-17T02:49:15.358Z,21.90
2023-05-17T02:51:41.897Z,24.15
2023-05-17T02:54:09.823Z,25.30
2023-05-17T02:56:36.573Z,21.65
2023-05-17T02:59:03.171Z,19.85
2023-05-17T03:01:29.766Z,20.67
2023-05-17T03:03:56.499Z,19.73
2023-05-17T03:06:23.129Z,24.50
2023-05-17T03:08:50.297Z,18.08
2023-05-17T03:11:16.771Z,20.52
2023-05-17T03:13:43.553Z,21.60
2023-05-17T03:16:10.045Z,17.38
2023-05-17T03:18:36.782Z,21.73
2023-05-17T03:21:03.680Z,22.30
2023-05-17T03:23:30.238Z,18.63
2023-05-17T03:25:56.740Z,23.10
2023-05-17T03:28:23.374Z,21.17
2023-05-17T03:30:49.923Z,23.15
2023-05-17T03:33:16.606Z,18.67
2023-05-17T03:35:43.147Z,20.48
2023-05-17T03:38:09.677Z,17.85
2023-05-17T03:40:36.363Z,18.73
2023-05-17T03:43:02.942Z,19.08
2023-05-17T03:45:29.524Z,25.73
2023-05-17T03:47:56.297Z,19.92
2023-05-17T03:50:22.844Z,18.00
2023-05-17T03:52:49.337Z,23.25
2023-05-17T03:55:16.055Z,18.02
2023-05-17T03:57:42.707Z,23.85
2023-05-17T04:00:11.873Z,21.40
2023-05-17T04:02:38.840Z,22.48
2023-05-17T04:05:05.737Z,24.98
2023-05-17T04:07:32.321Z,18.20
2023-05-17T04:09:59.512Z,19.95
2023-05-17T04:12:26.387Z,18.23
2023-05-17T04:14:52.934Z,18.73
2023-05-17T04:17:19.533Z,19.95
2023-05-17T04:19:46.196Z,20.13
2023-05-17T04:22:12.913Z,22.45
2023-05-17T04:24:39.434Z,16.00
2023-05-17T04:27:07.096Z,14.30
2023-05-17T04:29:33.629Z,25.05
2023-05-17T04:32:00.275Z,29.75
2023-05-17T04:34:26.848Z,20.35
2023-05-17T04:36:53.347Z,25.40
2023-05-17T04:39:20.778Z,19.30
2023-05-17T04:41:47.333Z,18.35
2023-05-17T04:44:14.927Z,17.33
2023-05-17T04:46:42.115Z,21.73
2023-05-17T04:49:08.625Z,20.20
2023-05-17T04:51:35.306Z,19.10
2023-05-17T04:54:02.122Z,18.75
2023-05-17T04:56:29.317Z,21.30
2023-05-17T04:58:55.828Z,23.20
2023-05-17T05:01:22.548Z,23.33
2023-05-17T05:03:49.128Z,26.42
2023-05-17T05:06:16.422Z,24.23
2023-05-17T05:08:43.013Z,24.30
2023-05-17T05:11:09.571Z,17.67
2023-05-17T05:13:38.872Z,23.50
2023-05-17T05:16:06.179Z,18.73
2023-05-17T05:18:32.829Z,24.15
2023-05-17T05:20:59.560Z,28.38
2023-05-17T05:23:26.343Z,21.65
2023-05-17T05:25:52.872Z,23.80
2023-05-17T05:28:19.360Z,25.67
2023-05-17T05:30:45.852Z,23.40
2023-05-17T05:33:12.583Z,31.23
2023-05-17T05:35:39.407Z,24.40
2023-05-17T05:38:05.980Z,29.45
2023-05-17T05:40:32.746Z,23.27
2023-05-17T05:42:59.427Z,23.75
2023-05-17T05:45:26.074Z,22.95
2023-05-17T05:47:52.729Z,30.88
2023-05-17T05:50:19.333Z,26.33
2023-05-17T05:52:46.251Z,25.50
2023-05-17T05:55:12.938Z,23.90
2023-05-17T05:57:39.613Z,20.67
2023-05-17T06:00:07.160Z,21.48
2023-05-17T06:02:34.942Z,25.27
2023-05-17T06:05:03.496Z,23.88
2023-05-17T06:07:30.033Z,24.13
2023-05-17T06:09:56.541Z,17.33
2023-05-17T06:12:23.027Z,25.15
2023-05-17T06:14:49.551Z,20.58
2023-05-17T06:17:16.126Z,20.63
2023-05-17T06:19:42.610Z,27.52
2023-05-17T06:22:09.129Z,32.17
2023-05-17T06:24:35.667Z,31.35
2023-05-17T06:27:02.794Z,27.70
2023-05-17T06:29:29.320Z,31.52
2023-05-17T06:31:56.879Z,27.95
2023-05-17T06:34:23.397Z,23.85
2023-05-17T06:36:52.509Z,23.65
2023-05-17T06:39:19.084Z,25.70
2023-05-17T06:41:45.794Z,21.42
2023-05-17T06:44:12.371Z,24.90
2023-05-17T06:46:38.864Z,24.00
2023-05-17T06:49:05.823Z,31.30
2023-05-17T06:51:32.405Z,22.30
2023-05-17T06:53:59.069Z,26.45
2023-05-17T06:56:25.667Z,28.33
2023-05-17T06:58:52.460Z,21.25
2023-05-17T07:01:18.992Z,23.23
2023-05-17T07:03:45.693Z,18.50
2023-05-17T07:06:12.243Z,18.95
2023-05-17T07:08:40.273Z,24.52
2023-05-17T07:11:08.221Z,15.48
2023-05-17T07:13:34.758Z,22.95
2023-05-17T07:16:01.234Z,21.45
2023-05-17T07:18:27.829Z,23.55
2023-05-17T07:20:54.429Z,22.45
2023-05-17T07:23:21.013Z,25.17
2023-05-17T07:25:47.691Z,20.05
2023-05-17T07:28:16.960Z,24.17
2023-05-17T07:30:43.510Z,21.35
2023-05-17T07:33:10.171Z,20.88
2023-05-17T07:35:36.777Z,25.52
2023-05-17T07:38:03.446Z,23.65
2023-05-17T07:40:30.026Z,19.67
2023-05-17T07:42:56.519Z,20.42
2023-05-17T07:45:23.028Z,23.92
2023-05-17T07:47:49.688Z,21.63
2023-05-17T07:50:16.659Z,22.08
2023-05-17T07:52:43.254Z,17.98
2023-05-17T07:55:10.371Z,22.10
2023-05-17T07:57:37.072Z,18.70
2023-05-17T08:00:04.468Z,21.13
2023-05-17T08:02:31.077Z,20.42
2023-05-17T08:04:57.755Z,14.07
2023-05-17T08:07:24.332Z,16.58
2023-05-17T08:09:51.216Z,17.58
2023-05-17T08:12:17.759Z,22.45
2023-05-17T08:14:44.521Z,16.42
2023-05-17T08:17:11.032Z,21.05
2023-05-17T08:19:37.724Z,20.02
2023-05-17T08:22:04.828Z,24.77
2023-05-17T08:24:31.359Z,15.60
2023-05-17T08:26:58.503Z,17.13
2023-05-17T08:29:25.013Z,21.23
2023-05-17T08:31:52.567Z,23.90
2023-05-17T08:34:19.061Z,19.30
2023-05-17T08:36:45.855Z,14.52
2023-05-17T08:39:13.020Z,23.75
2023-05-17T08:41:40.142Z,18.35
2023-05-17T08:44:07.624Z,15.75
2023-05-17T08:46:36.961Z,16.95
2023-05-17T08:49:06.167Z,16.05
2023-05-17T08:51:32.807Z,13.57
2023-05-17T08:53:59.427Z,17.42
2023-05-17T08:56:26.164Z,17.25
2023-05-17T08:58:57.883Z,16.77
2023-05-17T09:01:26.836Z,13.80
2023-05-17T09:03:57.259Z,14.32
2023-05-17T09:06:24.098Z,12.30
2023-05-17T09:08:52.781Z,15.88
2023-05-17T09:11:27.929Z,10.70
2023-05-17T09:13:58.312Z,17.90
2023-05-17T09:16:25.143Z,17.17
2023-05-17T09:18:58.513Z,13.52
2023-05-17T09:21:26.977Z,13.75
2023-05-17T09:24:05.568Z,12.77
2023-05-17T09:26:45.213Z,14.43
2023-05-17T09:29:16.211Z,15.55
2023-05-17T09:31:44.024Z,16.95
2023-05-17T09:34:11.078Z,11.18
2023-05-17T09:36:39.308Z,14.80
2023-05-17T09:39:13.596Z,16.40
2023-05-17T09:41:47.040Z,10.30
2023-05-17T09:44:14.996Z,10.65
2023-05-17T09:46:44.492Z,13.60
2023-05-17T09:49:11.330Z,12.77
2023-05-17T09:51:42.441Z,10.73
2023-05-17T09:54:10.446Z,13.90
2023-05-17T09:56:37.088Z,15.70
2023-05-17T09:59:12.911Z,10.65
2023-05-17T10:01:41.827Z,12.85
2023-05-17T10:04:11.285Z,14.63
2023-05-17T10:09:15.833Z,20.13
2023-05-17T10:11:46.082Z,18.55
2023-05-17T10:14:18.797Z,16.17
2023-05-17T10:16:45.642Z,14.15
2023-05-17T10:19:13.276Z,20.05
2023-05-17T10:21:41.220Z,20.40
2023-05-17T10:24:08.397Z,14.15
2023-05-17T10:26:36.358Z,12.55
2023-05-17T10:29:05.289Z,15.40
2023-05-17T10:31:33.864Z,14.63
2023-05-17T10:34:05.783Z,17.80
2023-05-17T10:39:00.192Z,12.45
2023-05-17T10:41:32.064Z,15.73
2023-05-17T10:43:59.740Z,15.88
2023-05-17T10:46:29.267Z,15.18
2023-05-17T10:48:58.723Z,12.50
2023-05-17T10:51:36.757Z,18.75
2023-05-17T10:54:04.940Z,11.07
2023-05-17T10:56:32.635Z,12.13
2023-05-17T10:59:21.503Z,14.18
2023-05-17T11:01:54.635Z,12.05
2023-05-17T11:04:26.403Z,9.80
2023-05-17T11:09:40.936Z,11.93
2023-05-17T11:12:09.716Z,13.43
2023-05-17T11:14:45.691Z,14.85
2023-05-17T11:17:17.981Z,14.13
2023-05-17T11:20:16.991Z,13.48
2023-05-17T11:22:50.636Z,16.52
2023-05-17T11:25:18.890Z,12.52
2023-05-17T11:27:51.209Z,18.45
2023-05-17T11:30:26.862Z,16.60
2023-05-17T11:33:10.982Z,10.77
2023-05-17T11:35:44.753Z,15.05
2023-05-17T11:38:27.658Z,13.63
2023-05-17T11:40:56.005Z,17.17
2023-05-17T11:43:24.376Z,18.63
2023-05-17T11:45:54.778Z,19.73
2023-05-17T11:48:23.595Z,19.08
2023-05-17T11:50:52.314Z,10.55
2023-05-17T11:53:19.220Z,17.00
2023-05-17T11:55:47.917Z,16.10
2023-05-17T11:58:34.855Z,14.27
2023-05-17T12:01:01.530Z,17.77
2023-05-17T12:03:29.308Z,15.55
2023-05-17T12:06:05.909Z,12.90
2023-05-17T12:08:34.400Z,12.13
2023-05-17T12:11:01.977Z,20.63
2023-05-17T12:13:30.376Z,14.05
2023-05-17T12:15:59.786Z,12.40
2023-05-17T12:18:40.973Z,15.75
2023-05-17T12:21:09.375Z,19.75
2023-05-17T12:23:38.268Z,13.55
2023-05-17T12:26:22.362Z,17.98
2023-05-17T12:28:58.273Z,14.05
2023-05-17T12:31:37.667Z,17.33
2023-05-17T12:34:09.475Z,14.07
2023-05-17T12:36:37.344Z,16.92
2023-05-17T12:39:06.302Z,11.52
2023-05-17T12:41:33.178Z,16.55
2023-05-17T12:44:13.162Z,17.08
2023-05-17T12:46:41.599Z,16.67
2023-05-17T12:49:09.557Z,15.00
2023-05-17T12:51:46.142Z,12.98
2023-05-17T12:54:29.565Z,14.50
2023-05-17T12:56:56.813Z,15.23
2023-05-17T12:59:28.628Z,15.13
2023-05-17T13:04:37.765Z,18.38
2023-05-17T13:07:05.749Z,16.30
2023-05-17T13:09:34.492Z,14.77
2023-05-17T13:12:08.056Z,18.52
2023-05-17T13:14:39.314Z,12.65
2023-05-17T13:17:08.375Z,14.52
2023-05-17T13:19:38.767Z,16.30
2023-05-17T13:22:06.652Z,13.10
2023-05-17T13:24:38.228Z,11.73
2023-05-17T13:27:06.054Z,13.18
2023-05-17T13:29:39.658Z,15.45
2023-05-17T13:32:08.404Z,11.90
2023-05-17T13:34:35.545Z,8.15
2023-05-17T13:37:02.187Z,20.42
2023-05-17T13:39:28.771Z,10.82
2023-05-17T13:41:55.340Z,11.85
2023-05-17T13:44:22.014Z,12.80
2023-05-17T13:46:48.528Z,12.90
2023-05-17T13:49:15.273Z,11.75
2023-05-17T13:51:42.845Z,10.25
2023-05-17T13:54:10.683Z,14.95
2023-05-17T13:56:37.287Z,12.88
2023-05-17T13:59:03.876Z,12.40
2023-05-17T14:01:30.532Z,18.42
2023-05-17T14:03:57.778Z,11.30
2023-05-17T14:06:24.559Z,15.55
2023-05-17T14:08:53.207Z,13.75
2023-05-17T14:11:19.793Z,11.15
2023-05-17T14:13:46.386Z,12.70
2023-05-17T14:16:14.051Z,10.48
2023-05-17T14:18:40.720Z,12.13
2023-05-17T14:21:08.261Z,15.55
2023-05-17T14:23:35.214Z,11.70
2023-05-17T14:26:05.045Z,11.73
2023-05-17T14:28:31.850Z,9.63
2023-05-17T14:30:58.423Z,16.52
2023-05-17T14:33:26.836Z,12.20
2023-05-17T14:35:53.639Z,11.85
2023-05-17T14:38:22.348Z,12.90
2023-05-17T14:40:49.030Z,12.80
2023-05-17T14:43:16.327Z,11.00
2023-05-17T14:45:44.093Z,9.23
2023-05-17T14:48:10.830Z,9.15
2023-05-17T14:50:37.429Z,11.40
2023-05-17T14:53:03.912Z,15.00
2023-05-17T14:55:30.725Z,7.95
2023-05-17T14:58:01.769Z,8.25
2023-05-17T15:00:28.346Z,11.00
2023-05-17T15:02:54.846Z,14.95
2023-05-17T15:05:21.511Z,14.40
2023-05-17T15:07:52.746Z,9.60
2023-05-17T15:10:19.457Z,10.65
2023-05-17T15:12:45.944Z,12.68
2023-05-17T15:15:12.620Z,12.55
2023-05-17T15:17:39.278Z,10.05
2023-05-17T15:20:07.494Z,11.63
2023-05-17T15:22:34.082Z,10.88
2023-05-17T15:25:02.519Z,12.65
2023-05-17T15:27:29.018Z,10.60
2023-05-17T15:29:55.716Z,14.85
2023-05-17T15:32:22.317Z,7.88
2023-05-17T15:34:48.956Z,10.15
2023-05-17T15:37:15.470Z,12.05
2023-05-17T15:39:42.018Z,9.38
2023-05-17T15:42:08.629Z,7.68
2023-05-17T15:44:35.120Z,8.18
2023-05-17T15:47:03.313Z,8.88
2023-05-17T15:49:30.241Z,13.00
2023-05-17T15:51:56.828Z,10.55
2023-05-17T15:54:23.346Z,13.18
2023-05-17T15:56:49.912Z,9.75
2023-05-17T15:59:17.242Z,12.27
2023-05-17T16:01:46.263Z,16.38
2023-05-17T16:04:13.666Z,10.32
2023-05-17T16:06:40.629Z,10.05
2023-05-17T16:09:07.371Z,9.85
2023-05-17T16:11:33.958Z,12.20
2023-05-17T16:14:00.456Z,16.17
2023-05-17T16:16:27.079Z,11.07
2023-05-17T16:18:53.649Z,8.52
2023-05-17T16:21:20.325Z,11.65
2023-05-17T16:23:46.881Z,10.70
2023-05-17T16:26:13.384Z,12.20
2023-05-17T16:28:40.211Z,9.85
2023-05-17T16:31:07.310Z,12.20
2023-05-17T16:33:34.333Z,11.68
2023-05-17T16:36:00.944Z,11.48
2023-05-17T16:38:27.630Z,6.55
2023-05-17T16:40:54.244Z,11.68
2023-05-17T16:43:20.817Z,10.52
2023-05-17T16:45:47.337Z,10.77
2023-05-17T16:48:15.069Z,14.63
2023-05-17T16:50:42.552Z,11.77
2023-05-17T16:53:09.456Z,9.43
2023-05-17T16:55:36.569Z,8.55
2023-05-17T16:58:03.409Z,11.68
2023-05-17T17:00:30.126Z,12.27
2023-05-17T17:02:58.299Z,10.38
2023-05-17T17:05:25.339Z,10.05
2023-05-17T17:07:51.910Z,18.17
2023-05-17T17:10:20.029Z,14.02
2023-05-17T17:12:47.368Z,11.27
2023-05-17T17:15:14.141Z,11.20
2023-05-17T17:17:41.097Z,10.00
2023-05-17T17:20:09.157Z,12.23
2023-05-17T17:22:35.886Z,13.25
2023-05-17T17:25:02.491Z,11.18
2023-05-17T17:27:29.109Z,9.75
2023-05-17T17:29:55.886Z,7.07
2023-05-17T17:32:22.513Z,14.23
2023-05-17T17:34:49.059Z,8.70
2023-05-17T17:37:15.592Z,11.05
2023-05-17T17:39:42.214Z,8.32
2023-05-17T17:42:10.550Z,12.57
2023-05-17T17:44:37.117Z,12.60
2023-05-17T17:47:03.968Z,9.00
2023-05-17T17:49:30.570Z,9.75
2023-05-17T17:51:58.209Z,11.32
2023-05-17T17:54:24.906Z,11.88
2023-05-17T17:56:51.820Z,10.98
2023-05-17T17:59:18.398Z,10.48
2023-05-17T18:01:45.037Z,14.98
2023-05-17T18:04:13.629Z,8.82
2023-05-17T18:06:41.825Z,16.45
2023-05-17T18:09:08.729Z,7.93
2023-05-17T18:11:35.373Z,9.35
2023-05-17T18:14:02.577Z,7.43
2023-05-17T18:16:29.436Z,13.65
2023-05-17T18:18:56.781Z,9.13
2023-05-17T18:21:23.427Z,10.80
2023-05-17T18:23:50.448Z,13.27
2023-05-17T18:26:17.042Z,11.85
2023-05-17T18:28:43.562Z,12.85
2023-05-17T18:31:10.696Z,10.35
2023-05-17T18:33:37.245Z,11.43
2023-05-17T18:36:04.001Z,12.23
2023-05-17T18:38:30.530Z,12.63
2023-05-17T18:40:57.164Z,12.15
2023-05-17T18:43:23.761Z,13.65
2023-05-17T18:45:51.347Z,9.43
2023-05-17T18:48:18.115Z,12.32
2023-05-17T18:50:44.900Z,9.05
2023-05-17T18:53:12.867Z,11.82
2023-05-17T18:55:39.658Z,9.30
2023-05-17T18:58:06.151Z,11.30
2023-05-17T19:00:33.115Z,11.68
2023-05-17T19:03:04.325Z,9.75
2023-05-17T19:05:31.068Z,8.77
2023-05-17T19:07:57.580Z,13.25
2023-05-17T19:10:24.174Z,11.48
2023-05-17T19:12:50.739Z,15.48
2023-05-17T19:15:17.234Z,10.55
2023-05-17T19:17:44.024Z,9.27
2023-05-17T19:20:11.046Z,10.82
2023-05-17T19:22:37.742Z,10.20
2023-05-17T19:25:04.581Z,10.63
2023-05-17T19:27:31.104Z,10.18
2023-05-17T19:29:57.581Z,11.13
2023-05-17T19:32:24.196Z,9.82
2023-05-17T19:34:50.837Z,10.88
2023-05-17T19:37:20.754Z,10.20
2023-05-17T19:39:47.318Z,13.13
2023-05-17T19:42:13.945Z,11.55
2023-05-17T19:44:52.067Z,12.98
2023-05-17T19:47:18.606Z,12.30
2023-05-17T19:49:45.165Z,11.07
2023-05-17T19:52:11.908Z,11.05
2023-05-17T19:54:38.465Z,10.50
2023-05-17T19:57:05.696Z,12.48
2023-05-17T19:59:35.535Z,11.10
2023-05-17T20:02:07.797Z,11.45
2023-05-17T20:04:34.388Z,12.02
2023-05-17T20:07:03.928Z,13.20
2023-05-17T20:09:32.048Z,12.43
2023-05-17T20:11:58.651Z,13.27
2023-05-17T20:14:26.376Z,16.48
2023-05-17T20:16:53.010Z,12.85
2023-05-17T20:19:21.414Z,14.18
2023-05-17T20:21:48.402Z,8.82
2023-05-17T20:24:14.988Z,15.63
2023-05-17T20:26:44.936Z,11.07
2023-05-17T20:29:11.840Z,12.35
2023-05-17T20:31:38.614Z,13.02
2023-05-17T20:34:05.332Z,13.75
2023-05-17T20:36:32.172Z,14.50
2023-05-17T20:38:58.744Z,13.43
2023-05-17T20:41:25.281Z,15.23
2023-05-17T20:43:52.657Z,13.10
2023-05-17T20:46:19.284Z,13.05
2023-05-17T20:48:48.094Z,11.57
2023-05-17T20:51:15.585Z,15.48
2023-05-17T20:53:42.200Z,11.77
2023-05-17T20:56:08.910Z,15.05
2023-05-17T20:58:41.529Z,14.50
2023-05-17T21:01:08.176Z,17.88
2023-05-17T21:03:34.930Z,14.88
2023-05-17T21:06:05.836Z,14.23
2023-05-17T21:08:33.897Z,12.57
2023-05-17T21:11:00.693Z,12.23
2023-05-17T21:13:35.356Z,14.95
2023-05-17T21:16:04.692Z,16.17
2023-05-17T21:18:31.383Z,12.70
2023-05-17T21:20:58.054Z,18.15
2023-05-17T21:23:24.572Z,11.35
2023-05-17T21:25:52.751Z,22.42
2023-05-17T21:28:19.297Z,15.98
2023-05-17T21:30:45.856Z,17.55
2023-05-17T21:33:12.475Z,11.43
2023-05-17T21:35:39.077Z,12.18
2023-05-17T21:38:05.617Z,15.23
2023-05-17T21:40:32.708Z,11.48
2023-05-17T21:43:04.290Z,13.88
2023-05-17T21:45:31.092Z,12.98
2023-05-17T21:47:57.606Z,15.57
2023-05-17T21:50:24.547Z,12.90
2023-05-17T21:52:51.145Z,11.45
2023-05-17T21:55:17.697Z,22.13
2023-05-17T21:57:44.264Z,14.82
2023-05-17T22:00:15.405Z,16.08
2023-05-17T22:02:45.589Z,13.47
2023-05-17T22:05:16.721Z,18.00
2023-05-17T22:07:43.295Z,12.40
2023-05-17T22:10:10.317Z,14.23
2023-05-17T22:12:38.235Z,16.17
2023-05-17T22:15:05.564Z,15.70
2023-05-17T22:17:47.708Z,13.98
2023-05-17T22:20:16.829Z,14.60
2023-05-17T22:22:44.154Z,18.23
2023-05-17T22:25:10.894Z,13.43
2023-05-17T22:27:37.431Z,16.25
2023-05-17T22:30:04.457Z,12.93
2023-05-17T22:32:31.369Z,18.73
2023-05-17T22:35:07.630Z,15.75
2023-05-17T22:37:34.279Z,13.52
2023-05-17T22:40:06.272Z,17.20
2023-05-17T22:45:05.703Z,14.50
2023-05-17T22:47:38.732Z,16.90
2023-05-17T22:50:06.018Z,12.10
2023-05-17T22:52:32.752Z,12.90
2023-05-17T22:54:59.383Z,9.32
2023-05-17T22:57:26.058Z,18.20
2023-05-17T22:59:58.289Z,13.15
2023-05-17T23:02:24.942Z,11.27
2023-05-17T23:04:55.710Z,12.32
2023-05-17T23:07:23.442Z,10.98
2023-05-17T23:09:49.941Z,17.35
2023-05-17T23:12:17.350Z,13.68
2023-05-17T23:14:44.379Z,13.93
2023-05-17T23:17:10.901Z,12.35
2023-05-17T23:19:37.458Z,18.92
2023-05-17T23:22:06.280Z,12.02
2023-05-17T23:24:38.912Z,13.32
2023-05-17T23:27:09.795Z,13.55
2023-05-17T23:29:36.568Z,16.00
2023-05-17T23:32:03.185Z,13.55
2023-05-17T23:34:29.764Z,12.32
2023-05-17T23:36:56.346Z,20.00
2023-05-17T23:39:22.889Z,15.80
2023-05-17T23:41:51.759Z,12.98
2023-05-17T23:44:21.248Z,12.65
2023-05-17T23:46:55.677Z,10.77
2023-05-17T23:49:25.343Z,16.73
2023-05-17T23:51:51.906Z,17.77
2023-05-17T23:54:18.450Z,11.25
2023-05-17T23:56:44.999Z,12.10
2023-05-17T23:59:12.229Z,15.18
